createdAt,value
2019-05-15T00:02:32.307Z,2.13
2019-05-15T00:07:39.130Z,1.97
2019-05-15T00:12:42.297Z,2.17
2019-05-15T00:17:45.558Z,1.90
2019-05-15T00:22:49.074Z,2.17
2019-05-15T00:27:52.587Z,2.27
2019-05-15T00:32:55.857Z,1.97
2019-05-15T00:37:59.139Z,1.70
2019-05-15T00:43:02.656Z,2.10
2019-05-15T00:48:05.933Z,1.93
2019-05-15T00:53:09.382Z,2.20
2019-05-15T00:58:13.372Z,1.67
2019-05-15T01:03:18.248Z,2.10
2019-05-15T01:08:21.723Z,1.77
2019-05-15T01:13:24.996Z,1.77
2019-05-15T01:18:29.226Z,2.03
2019-05-15T01:23:32.629Z,2.00
2019-05-15T01:28:38.160Z,2.00
2019-05-15T01:33:41.146Z,1.87
2019-05-15T01:38:44.429Z,1.93
2019-05-15T01:43:48.915Z,2.20
2019-05-15T01:48:52.434Z,2.23
2019-05-15T01:53:55.710Z,2.27
2019-05-15T01:58:58.988Z,2.23
2019-05-15T02:04:02.281Z,2.07
2019-05-15T02:09:08.286Z,2.00
2019-05-15T02:14:11.654Z,2.20
2019-05-15T02:19:14.940Z,2.00
2019-05-15T02:24:18.870Z,2.23
2019-05-15T02:29:25.204Z,2.40
2019-05-15T02:34:30.152Z,2.07
2019-05-15T02:39:32.971Z,2.07
2019-05-15T02:44:39.652Z,2.37
2019-05-15T02:49:41.335Z,2.07
2019-05-15T02:54:44.589Z,2.77
2019-05-15T02:59:49.945Z,2.03
2019-05-15T03:04:52.862Z,2.30
2019-05-15T03:09:59.722Z,2.40
2019-05-15T03:15:01.638Z,2.17
2019-05-15T03:20:10.284Z,2.00
2019-05-15T03:25:12.175Z,2.43
2019-05-15T03:30:21.101Z,2.60
2019-05-15T03:35:22.723Z,2.43
2019-05-15T03:40:25.795Z,2.10
2019-05-15T03:45:29.859Z,2.33
2019-05-15T03:50:33.223Z,2.37
2019-05-15T03:55:40.029Z,2.40
2019-05-15T04:00:41.758Z,2.30
2019-05-15T04:05:45.278Z,2.70
2019-05-15T04:10:48.935Z,2.70
2019-05-15T04:15:52.294Z,2.30
2019-05-15T04:20:55.805Z,2.70
2019-05-15T04:25:59.386Z,2.73
2019-05-15T04:31:02.669Z,2.60
2019-05-15T04:36:05.946Z,2.67
2019-05-15T04:41:10.001Z,2.87
2019-05-15T04:46:13.480Z,2.67
2019-05-15T04:51:19.017Z,1.83
2019-05-15T04:56:21.758Z,2.40
2019-05-15T05:01:28.670Z,1.83
2019-05-15T05:06:30.538Z,2.30
2019-05-15T05:11:33.950Z,1.97
2019-05-15T05:16:39.219Z,2.10
2019-05-15T05:21:42.466Z,2.20
2019-05-15T05:26:48.850Z,2.33
2019-05-15T05:31:51.210Z,2.20
2019-05-15T05:36:54.488Z,1.30
2019-05-15T05:41:58.786Z,1.90
2019-05-15T05:47:02.172Z,1.60
2019-05-15T05:52:05.501Z,1.10
2019-05-15T05:57:09.206Z,1.57
2019-05-15T06:02:12.676Z,1.27
2019-05-15T06:07:18.353Z,1.60
2019-05-15T06:12:21.183Z,1.77
2019-05-15T06:17:24.458Z,1.63
2019-05-15T06:22:27.787Z,1.53
2019-05-15T06:27:31.253Z,1.30
2019-05-15T06:32:34.803Z,1.40
2019-05-15T06:37:39.527Z,1.73
2019-05-15T06:42:43.395Z,1.20
2019-05-15T06:47:48.268Z,0.97
2019-05-15T06:52:51.909Z,1.40
2019-05-15T06:57:55.255Z,1.00
2019-05-15T07:02:58.805Z,1.10
2019-05-15T07:08:02.081Z,1.10
2019-05-15T07:13:05.605Z,0.80
2019-05-15T07:18:08.907Z,1.00
2019-05-15T07:23:12.197Z,0.70
2019-05-15T07:28:17.941Z,0.80
2019-05-15T07:33:35.388Z,0.50
2019-05-15T07:38:25.499Z,0.40
2019-05-15T07:43:28.776Z,0.60
2019-05-15T07:48:32.055Z,0.77
2019-05-15T07:53:38.202Z,0.50
2019-05-15T07:58:40.434Z,0.57
2019-05-15T08:03:58.513Z,0.30
2019-05-15T08:08:49.221Z,0.50
2019-05-15T08:13:52.505Z,0.60
2019-05-15T08:18:57.724Z,0.40
2019-05-15T08:24:01.048Z,0.30
2019-05-15T08:29:04.585Z,0.50
2019-05-15T08:34:13.605Z,0.97
2019-05-15T08:39:13.426Z,0.50
2019-05-15T08:44:18.688Z,0.60
2019-05-15T08:49:21.800Z,0.60
2019-05-15T08:54:25.081Z,0.50
2019-05-15T08:59:29.519Z,0.50
2019-05-15T09:04:35.005Z,0.50
2019-05-15T09:09:38.364Z,0.70
2019-05-15T09:14:41.744Z,0.70
2019-05-15T09:19:45.042Z,0.60
2019-05-15T09:24:48.841Z,0.60
2019-05-15T09:29:52.662Z,0.70
2019-05-15T09:34:56.056Z,0.43
2019-05-15T09:39:59.344Z,0.70
2019-05-15T09:45:02.656Z,0.63
2019-05-15T09:50:09.506Z,0.50
2019-05-15T09:55:13.053Z,0.70
2019-05-15T10:00:18.949Z,0.60
2019-05-15T10:05:23.090Z,0.63
2019-05-15T10:10:28.413Z,0.50
2019-05-15T10:15:31.784Z,0.40
2019-05-15T10:20:35.078Z,0.47
2019-05-15T10:25:38.897Z,0.53
2019-05-15T10:30:42.710Z,0.40
2019-05-15T10:35:46.001Z,0.50
2019-05-15T10:41:03.033Z,0.50
2019-05-15T10:45:54.888Z,0.40
2019-05-15T10:51:05.841Z,0.50
2019-05-15T10:56:03.299Z,0.50
2019-05-15T11:01:10.957Z,0.57
2019-05-15T11:06:11.609Z,0.53
2019-05-15T11:11:14.907Z,0.47
2019-05-15T11:16:21.085Z,0.40
2019-05-15T11:21:23.204Z,0.80
2019-05-15T11:26:33.116Z,0.33
2019-05-15T11:31:31.509Z,0.30
2019-05-15T11:36:34.772Z,0.60
2019-05-15T11:41:38.627Z,0.60
2019-05-15T11:46:42.233Z,0.50
2019-05-15T11:51:45.524Z,0.63
2019-05-15T11:56:49.213Z,0.67
2019-05-15T12:01:52.825Z,0.50
2019-05-15T12:07:01.527Z,0.63
2019-05-15T12:12:01.178Z,0.40
2019-05-15T12:17:11.373Z,0.30
2019-05-15T12:22:09.480Z,0.30
2019-05-15T12:27:17.959Z,0.30
2019-05-15T12:32:28.450Z,0.40
2019-05-15T12:37:22.858Z,0.30
2019-05-15T13:02:46.511Z,0.60
2019-05-15T13:07:49.804Z,0.40
2019-05-15T13:12:59.622Z,0.50
2019-05-15T13:17:59.654Z,0.50
2019-05-15T13:23:03.003Z,0.40
2019-05-15T13:28:08.609Z,0.40
2019-05-15T13:33:11.297Z,0.30
2019-05-15T13:38:14.582Z,0.60
2019-05-15T13:43:18.627Z,0.43
2019-05-15T13:48:22.022Z,0.40
2019-05-15T13:53:27.714Z,0.50
2019-05-15T13:58:30.583Z,0.40
2019-05-15T14:03:34.076Z,0.33
2019-05-15T14:08:38.357Z,0.20
2019-05-15T14:13:41.714Z,0.40
2019-05-15T14:18:44.987Z,0.50
2019-05-15T14:23:48.266Z,0.40
2019-05-15T14:28:51.800Z,0.40
2019-05-15T14:33:55.082Z,0.37
2019-05-15T14:38:58.824Z,0.60
2019-05-15T14:44:14.484Z,0.77
2019-05-15T14:49:09.018Z,0.80
2019-05-15T14:54:12.493Z,0.80
2019-05-15T14:59:15.766Z,0.60
2019-05-15T15:04:19.052Z,0.77
2019-05-15T15:09:22.340Z,0.77
2019-05-15T15:14:28.145Z,0.70
2019-05-15T15:19:30.876Z,0.50
2019-05-15T15:24:34.167Z,0.57
2019-05-15T15:29:38.824Z,0.60
2019-05-15T15:34:42.541Z,0.90
2019-05-15T15:39:48.050Z,0.87
2019-05-15T15:44:50.843Z,0.80
2019-05-15T15:49:54.350Z,0.53
2019-05-15T15:54:57.878Z,0.77
2019-05-15T16:00:01.156Z,0.50
2019-05-15T16:05:08.443Z,0.90
2019-05-15T16:10:12.217Z,0.57
2019-05-15T16:15:18.014Z,0.80
2019-05-15T16:20:21.503Z,1.27
2019-05-15T16:25:25.024Z,0.53
2019-05-15T16:30:28.358Z,0.50
2019-05-15T16:35:31.846Z,0.60
2019-05-15T16:40:35.136Z,0.60
2019-05-15T16:45:38.994Z,0.43
2019-05-15T16:50:43.393Z,0.87
2019-05-15T16:55:48.088Z,0.50
2019-05-15T17:00:51.692Z,0.60
2019-05-15T17:05:55.214Z,0.40
2019-05-15T17:10:58.767Z,0.47
2019-05-15T17:16:02.060Z,0.50
2019-05-15T17:21:05.365Z,0.90
2019-05-15T17:26:09.027Z,0.63
2019-05-15T17:31:12.519Z,0.60
2019-05-15T17:36:18.445Z,0.70
2019-05-15T17:41:21.038Z,0.63
2019-05-15T17:46:24.310Z,0.60
2019-05-15T17:51:27.843Z,0.37
2019-05-15T17:56:31.101Z,0.50
2019-05-15T18:01:34.646Z,0.60
2019-05-15T18:06:39.866Z,0.43
2019-05-15T18:11:44.626Z,0.70
2019-05-15T18:16:50.934Z,0.60
2019-05-15T18:21:53.266Z,0.40
2019-05-15T18:26:58.455Z,0.83
2019-05-15T18:32:01.603Z,0.40
2019-05-15T18:37:05.114Z,0.50
2019-05-15T18:42:09.182Z,0.77
2019-05-15T18:47:12.715Z,0.50
2019-05-15T18:52:18.205Z,0.60
2019-05-15T18:57:21.229Z,0.50
2019-05-15T19:02:28.098Z,0.87
2019-05-15T19:07:31.388Z,0.57
2019-05-15T19:12:34.672Z,1.03
2019-05-15T19:17:38.795Z,0.80
2019-05-15T19:22:42.427Z,0.60
2019-05-15T19:27:45.709Z,0.80
2019-05-15T19:32:49.181Z,0.57
2019-05-15T19:37:52.858Z,0.73
2019-05-15T19:42:58.669Z,0.60
2019-05-15T19:48:01.349Z,0.80
2019-05-15T19:53:08.177Z,0.90
2019-05-15T19:58:12.278Z,0.93
2019-05-15T20:03:17.727Z,0.70
2019-05-15T20:08:20.810Z,0.80
2019-05-15T20:13:24.099Z,0.80
2019-05-15T20:18:27.870Z,0.70
2019-05-15T20:23:31.329Z,0.70
2019-05-15T20:28:39.016Z,0.73
2019-05-15T20:33:41.783Z,1.10
2019-05-15T20:38:45.309Z,1.10
2019-05-15T20:43:49.173Z,0.93
2019-05-15T20:48:53.041Z,1.20
2019-05-15T20:53:57.837Z,0.90
2019-05-15T20:59:02.898Z,0.60
2019-05-15T21:04:19.329Z,0.90
2019-05-15T21:09:11.213Z,0.60
2019-05-15T21:14:14.756Z,0.93
2019-05-15T21:19:18.987Z,0.77
2019-05-15T21:24:22.330Z,0.70
2019-05-15T21:29:25.626Z,0.77
2019-05-15T21:34:36.937Z,0.87
2019-05-15T21:39:34.262Z,1.00
2019-05-15T21:44:38.266Z,0.70
2019-05-15T21:49:41.981Z,0.70
2019-05-15T21:54:47.462Z,0.70
2019-05-15T21:59:50.759Z,0.70
2019-05-15T22:04:56.147Z,0.60
2019-05-15T22:09:59.557Z,0.70
2019-05-15T22:15:03.091Z,0.77
2019-05-15T22:20:08.637Z,1.10
2019-05-15T22:25:12.666Z,0.80
2019-05-15T22:30:16.469Z,0.90
2019-05-15T22:35:20.331Z,1.00
2019-05-15T22:40:23.612Z,0.93
2019-05-15T22:45:28.530Z,1.23
2019-05-15T22:50:32.370Z,1.03
2019-05-15T22:55:37.577Z,1.07
2019-05-15T23:00:41.436Z,1.20
2019-05-15T23:05:44.975Z,0.90
2019-05-15T23:10:50.663Z,1.30
2019-05-15T23:15:54.202Z,1.10
2019-05-15T23:20:59.471Z,1.37
2019-05-15T23:26:02.774Z,1.00
2019-05-15T23:31:08.154Z,1.30
2019-05-15T23:36:11.322Z,1.50
2019-05-15T23:41:14.855Z,1.57
2019-05-15T23:46:18.592Z,1.37
2019-05-15T23:51:21.972Z,1.40
2019-05-15T23:56:25.510Z,1.63
